createdAt,value
2022-08-10T00:00:35.970Z,100601.04
2022-08-10T00:03:02.951Z,100598.36
2022-08-10T00:05:43.125Z,100598.13
2022-08-10T00:08:10.933Z,100596.73
2022-08-10T00:10:49.970Z,100595.63
2022-08-10T00:13:17.011Z,100591.84
2022-08-10T00:15:53.340Z,100595.73
2022-08-10T00:18:34.582Z,100594.91
2022-08-10T00:21:03.841Z,100594.30
2022-08-10T00:23:31.002Z,100596.16
2022-08-10T00:25:57.953Z,100599.56
2022-08-10T00:28:25.000Z,100596.97
2022-08-10T00:30:52.051Z,100598.76
2022-08-10T00:33:19.104Z,100600.25
2022-08-10T00:35:46.049Z,100597.88
2022-08-10T00:38:13.093Z,100600.06
2022-08-10T00:40:40.161Z,100600.12
2022-08-10T00:43:07.198Z,100602.95
2022-08-10T00:45:34.785Z,100606.23
2022-08-10T00:48:01.695Z,100603.42
2022-08-10T00:50:28.646Z,100600.20
2022-08-10T00:52:55.696Z,100601.73
2022-08-10T00:55:22.754Z,100605.50
2022-08-10T00:57:55.218Z,100603.89
2022-08-10T01:00:24.117Z,100608.65
2022-08-10T01:02:51.404Z,100610.45
2022-08-10T01:05:20.757Z,100605.89
2022-08-10T01:08:08.192Z,100611.61
2022-08-10T01:10:52.041Z,100612.13
2022-08-10T01:13:25.524Z,100616.05
2022-08-10T01:16:13.979Z,100614.09
2022-08-10T01:18:44.211Z,100608.40
2022-08-10T01:21:38.805Z,100613.45
2022-08-10T01:24:27.769Z,100611.78
2022-08-10T01:27:06.184Z,100614.06
2022-08-10T01:29:36.308Z,100612.52
2022-08-10T01:32:07.268Z,100610.77
2022-08-10T01:34:40.009Z,100609.70
2022-08-10T01:37:10.881Z,100608.54
2022-08-10T01:39:43.921Z,100606.98
2022-08-10T01:42:13.056Z,100610.04
2022-08-10T01:44:45.598Z,100607.42
2022-08-10T01:47:36.870Z,100609.54
2022-08-10T01:50:10.764Z,100607.77
2022-08-10T01:52:37.704Z,100607.94
2022-08-10T01:55:05.567Z,100606.52
2022-08-10T01:57:32.613Z,100606.10
2022-08-10T02:00:02.509Z,100602.27
2022-08-10T02:02:30.427Z,100601.54
2022-08-10T02:04:57.342Z,100605.68
2022-08-10T02:07:25.823Z,100602.09
2022-08-10T02:09:53.696Z,100598.61
2022-08-10T02:12:23.088Z,100595.27
2022-08-10T02:14:59.641Z,100598.77
2022-08-10T02:17:59.158Z,100597.59
2022-08-10T02:20:19.674Z,100601.35
2022-08-10T02:22:49.598Z,100596.98
2022-08-10T02:25:42.210Z,100596.60
2022-08-10T02:28:04.572Z,100592.65
2022-08-10T02:30:31.623Z,100588.54
2022-08-10T02:32:58.855Z,100587.43
2022-08-10T02:35:27.359Z,100588.00
2022-08-10T02:38:00.384Z,100590.44
2022-08-10T02:42:18.645Z,100592.25
2022-08-10T02:45:27.144Z,100587.83
2022-08-10T02:46:13.911Z,100588.39
2022-08-10T02:49:00.133Z,100589.77
2022-08-10T02:52:07.888Z,100590.38
2022-08-10T02:54:33.134Z,100591.74
2022-08-10T02:57:03.028Z,100589.96
2022-08-10T02:59:39.588Z,100590.77
2022-08-10T03:02:08.284Z,100596.75
2022-08-10T03:04:56.134Z,100590.89
2022-08-10T03:07:44.236Z,100588.91
2022-08-10T03:10:34.355Z,100594.38
2022-08-10T03:13:02.217Z,100598.25
2022-08-10T03:15:29.884Z,100595.02
2022-08-10T03:17:58.785Z,100598.95
2022-08-10T03:20:36.575Z,100602.30
2022-08-10T03:23:13.174Z,100601.19
2022-08-10T03:25:40.097Z,100598.55
2022-08-10T03:28:07.034Z,100595.61
2022-08-10T03:30:34.634Z,100589.58
2022-08-10T03:33:03.386Z,100591.09
2022-08-10T03:35:30.434Z,100585.58
2022-08-10T03:37:59.794Z,100586.58
2022-08-10T03:40:45.517Z,100588.70
2022-08-10T03:43:18.218Z,100589.45
2022-08-10T03:45:55.152Z,100586.99
2022-08-10T03:48:24.399Z,100585.00
2022-08-10T03:50:59.529Z,100583.19
2022-08-10T03:54:02.391Z,100583.64
2022-08-10T03:56:29.705Z,100576.90
2022-08-10T03:58:58.874Z,100575.00
2022-08-10T04:02:46.141Z,100568.84
2022-08-10T04:04:15.482Z,100571.58
2022-08-10T04:06:46.542Z,100572.07
2022-08-10T04:09:18.202Z,100573.16
2022-08-10T04:11:45.149Z,100571.05
2022-08-10T04:14:38.234Z,100575.27
2022-08-10T04:16:59.123Z,100575.82
2022-08-10T04:19:26.413Z,100575.01
2022-08-10T04:22:05.449Z,100577.07
2022-08-10T04:24:33.363Z,100577.98
2022-08-10T04:27:01.549Z,100576.63
2022-08-10T04:29:28.801Z,100578.31
2022-08-10T04:31:55.872Z,100573.72
2022-08-10T04:34:22.895Z,100577.42
2022-08-10T04:36:50.149Z,100576.88
2022-08-10T04:39:17.531Z,100574.96
2022-08-10T04:41:47.448Z,100572.92
2022-08-10T04:44:15.182Z,100569.79
2022-08-10T04:46:56.335Z,100567.39
2022-08-10T04:49:52.147Z,100568.93
2022-08-10T04:52:14.437Z,100568.04
2022-08-10T04:54:41.822Z,100566.73
2022-08-10T04:57:09.316Z,100563.63
2022-08-10T04:59:36.490Z,100565.22
2022-08-10T05:02:27.131Z,100563.68
2022-08-10T05:04:50.853Z,100566.02
2022-08-10T05:07:18.549Z,100564.92
2022-08-10T05:10:02.911Z,100564.66
2022-08-10T05:12:37.341Z,100565.20
2022-08-10T05:15:09.799Z,100559.74
2022-08-10T05:17:37.225Z,100554.10
2022-08-10T05:20:07.474Z,100553.98
2022-08-10T05:22:42.585Z,100553.88
2022-08-10T05:25:12.853Z,100548.25
2022-08-10T05:27:41.653Z,100550.23
2022-08-10T05:30:10.565Z,100548.33
2022-08-10T05:32:57.299Z,100550.67
2022-08-10T05:35:27.925Z,100545.89
2022-08-10T05:38:09.174Z,100548.48
2022-08-10T05:40:46.049Z,100550.18
2022-08-10T05:43:18.008Z,100549.98
2022-08-10T05:46:17.054Z,100546.99
2022-08-10T05:48:55.303Z,100547.21
2022-08-10T05:51:20.872Z,100547.82
2022-08-10T05:54:00.823Z,100542.27
2022-08-10T05:56:54.698Z,100541.52
2022-08-10T06:00:35.180Z,100541.66
2022-08-10T06:02:41.704Z,100540.79
2022-08-10T06:04:54.530Z,100542.16
2022-08-10T06:07:22.185Z,100542.05
2022-08-10T06:09:58.914Z,100542.48
2022-08-10T06:12:31.352Z,100541.17
2022-08-10T06:15:05.318Z,100543.36
2022-08-10T06:17:33.371Z,100537.00
2022-08-10T06:20:01.510Z,100536.70
2022-08-10T06:22:32.713Z,100531.85
2022-08-10T06:27:48.746Z,100535.23
2022-08-10T06:30:19.836Z,100533.59
2022-08-10T06:32:54.995Z,100537.11
2022-08-10T06:35:25.890Z,100537.98
2022-08-10T06:37:53.015Z,100539.25
2022-08-10T06:40:20.560Z,100532.65
2022-08-10T06:42:48.652Z,100536.31
2022-08-10T06:45:30.550Z,100530.27
2022-08-10T06:48:03.127Z,100534.55
2022-08-10T06:50:45.237Z,100535.02
2022-08-10T06:53:23.544Z,100534.00
2022-08-10T06:55:57.451Z,100534.16
2022-08-10T06:58:26.820Z,100531.63
2022-08-10T07:00:54.490Z,100533.45
2022-08-10T07:03:21.944Z,100532.58
2022-08-10T07:05:51.402Z,100532.24
2022-08-10T07:08:20.283Z,100535.71
2022-08-10T07:10:47.844Z,100530.75
2022-08-10T07:14:16.569Z,100531.02
2022-08-10T07:16:10.931Z,100527.42
2022-08-10T07:18:38.491Z,100520.80
2022-08-10T07:21:05.743Z,100515.14
2022-08-10T07:23:57.083Z,100516.05
2022-08-10T07:26:20.120Z,100512.03
2022-08-10T07:28:48.813Z,100507.08
2022-08-10T07:31:54.328Z,100509.77
2022-08-10T07:34:09.567Z,100501.86
2022-08-10T07:36:36.822Z,100503.67
2022-08-10T07:39:05.484Z,100503.92
2022-08-10T07:41:33.206Z,100499.98
2022-08-10T07:44:03.274Z,100495.13
2022-08-10T07:46:31.176Z,100492.26
2022-08-10T07:49:01.379Z,100494.27
2022-08-10T07:51:28.625Z,100487.11
2022-08-10T07:53:55.885Z,100481.63
2022-08-10T07:56:47.268Z,100477.02
2022-08-10T07:59:14.663Z,100473.23
2022-08-10T08:01:50.431Z,100469.43
2022-08-10T08:04:18.902Z,100473.90
2022-08-10T08:06:46.159Z,100466.04
2022-08-10T08:09:13.214Z,100465.69
2022-08-10T08:11:43.019Z,100464.20
2022-08-10T08:14:11.098Z,100461.87
2022-08-10T08:16:40.540Z,100463.99
2022-08-10T08:19:27.284Z,100462.98
2022-08-10T08:24:05.848Z,100458.33
2022-08-10T08:24:42.889Z,100457.52
2022-08-10T08:27:10.894Z,100456.52
2022-08-10T08:29:41.576Z,100457.53
2022-08-10T08:32:08.578Z,100454.48
2022-08-10T08:34:41.419Z,100453.72
2022-08-10T08:37:11.205Z,100447.77
2022-08-10T08:39:38.544Z,100446.52
2022-08-10T08:42:26.369Z,100448.71
2022-08-10T08:45:15.969Z,100445.91
2022-08-10T08:48:05.040Z,100445.67
2022-08-10T08:51:01.738Z,100449.58
2022-08-10T08:54:02.428Z,100443.88
2022-08-10T08:56:36.928Z,100443.24
2022-08-10T08:59:42.414Z,100442.21
2022-08-10T09:02:55.106Z,100435.34
2022-08-10T09:05:58.562Z,100437.92
2022-08-10T09:09:00.382Z,100437.52
2022-08-10T09:11:49.141Z,100432.38
2022-08-10T09:14:25.863Z,100430.07
2022-08-10T09:17:04.855Z,100434.05
2022-08-10T09:19:37.645Z,100422.04
2022-08-10T09:22:41.547Z,100416.77
2022-08-10T09:25:22.214Z,100406.07
2022-08-10T09:28:10.154Z,100408.27
2022-08-10T09:31:21.548Z,100405.06
2022-08-10T09:36:22.291Z,100404.84
2022-08-10T09:37:02.029Z,100404.82
2022-08-10T09:40:12.574Z,100406.35
2022-08-10T09:42:42.315Z,100402.33
2022-08-10T09:45:16.809Z,100403.21
2022-08-10T09:48:02.426Z,100403.17
2022-08-10T09:51:28.057Z,100405.25
2022-08-10T09:53:46.904Z,100403.15
2022-08-10T09:57:17.924Z,100400.36
2022-08-10T10:00:01.446Z,100396.76
2022-08-10T10:03:06.779Z,100397.77
2022-08-10T10:05:52.769Z,100399.58
2022-08-10T10:08:28.655Z,100400.75
2022-08-10T10:11:16.662Z,100397.79
2022-08-10T10:14:02.794Z,100392.73
2022-08-10T10:16:50.879Z,100396.48
2022-08-10T10:19:37.211Z,100394.85
2022-08-10T10:22:46.218Z,100392.33
2022-08-10T10:25:51.360Z,100393.71
2022-08-10T10:29:44.820Z,100396.06
2022-08-10T10:32:09.629Z,100393.20
2022-08-10T10:35:02.793Z,100388.14
2022-08-10T10:38:00.725Z,100387.91
2022-08-10T10:40:17.988Z,100387.54
2022-08-10T10:43:15.961Z,100387.71
2022-08-10T10:45:50.403Z,100380.23
2022-08-10T10:48:48.463Z,100385.85
2022-08-10T10:51:28.108Z,100379.64
2022-08-10T10:54:13.799Z,100375.95
2022-08-10T10:56:57.441Z,100371.80
2022-08-10T10:59:55.417Z,100370.81
2022-08-10T11:02:41.819Z,100378.23
2022-08-10T11:05:31.500Z,100374.70
2022-08-10T11:08:17.247Z,100370.45
2022-08-10T11:12:00.397Z,100365.51
2022-08-10T11:14:26.038Z,100369.41
2022-08-10T11:17:16.641Z,100375.80
2022-08-10T11:20:02.089Z,100376.29
2022-08-10T11:22:50.985Z,100374.39
2022-08-10T11:25:27.499Z,100372.78
2022-08-10T11:28:05.463Z,100365.89
2022-08-10T11:30:53.615Z,100367.65
2022-08-10T11:34:04.083Z,100362.95
2022-08-10T11:36:36.451Z,100360.46
2022-08-10T11:39:16.870Z,100360.77
2022-08-10T11:42:12.498Z,100362.38
2022-08-10T11:44:49.834Z,100364.66
2022-08-10T11:47:33.360Z,100365.55
2022-08-10T11:50:01.639Z,100364.91
2022-08-10T11:52:59.920Z,100363.95
2022-08-10T11:55:33.117Z,100363.25
2022-08-10T11:58:22.387Z,100362.60
2022-08-10T12:00:49.641Z,100364.11
2022-08-10T12:03:17.102Z,100366.25
2022-08-10T12:05:54.551Z,100365.24
2022-08-10T12:10:03.671Z,100358.46
2022-08-10T12:11:24.254Z,100359.84
2022-08-10T12:14:20.292Z,100356.52
2022-08-10T12:16:52.454Z,100359.31
2022-08-10T12:19:59.794Z,100358.13
2022-08-10T12:22:51.329Z,100355.52
2022-08-10T12:25:56.884Z,100355.17
2022-08-10T12:28:15.181Z,100351.30
2022-08-10T12:30:47.039Z,100355.98
2022-08-10T12:33:24.304Z,100357.52
2022-08-10T12:36:17.461Z,100359.43
2022-08-10T12:39:26.189Z,100354.34
2022-08-10T12:42:00.752Z,100351.59
2022-08-10T12:44:44.719Z,100353.35
2022-08-10T12:47:43.158Z,100354.77
2022-08-10T12:50:32.916Z,100362.30
2022-08-10T12:53:06.596Z,100365.77
2022-08-10T12:55:35.039Z,100366.04
2022-08-10T12:58:01.985Z,100374.86
2022-08-10T13:00:53.878Z,100378.16
2022-08-10T13:04:23.518Z,100379.73
2022-08-10T13:06:14.134Z,100377.36
2022-08-10T13:08:59.819Z,100381.47
2022-08-10T13:12:37.468Z,100387.14
2022-08-10T13:14:27.704Z,100386.70
2022-08-10T13:16:57.289Z,100385.39
2022-08-10T13:19:25.282Z,100380.70
2022-08-10T13:21:52.331Z,100379.30
2022-08-10T13:24:33.241Z,100380.91
2022-08-10T13:27:25.134Z,100373.39
2022-08-10T13:30:07.240Z,100372.58
2022-08-10T13:32:38.659Z,100369.19
2022-08-10T13:35:10.778Z,100369.39
2022-08-10T13:37:39.639Z,100368.73
2022-08-10T13:40:13.229Z,100373.12
2022-08-10T13:42:41.852Z,100368.59
2022-08-10T13:45:12.103Z,100372.55
2022-08-10T13:47:48.743Z,100370.64
2022-08-10T13:50:35.626Z,100369.38
2022-08-10T13:53:14.249Z,100372.25
2022-08-10T13:55:56.508Z,100374.77
2022-08-10T13:58:34.826Z,100374.80
2022-08-10T14:01:37.430Z,100372.18
2022-08-10T14:04:06.374Z,100372.46
2022-08-10T14:06:33.529Z,100369.28
2022-08-10T14:09:02.701Z,100371.25
2022-08-10T14:11:29.676Z,100375.23
2022-08-10T14:13:58.864Z,100372.02
2022-08-10T14:16:26.047Z,100365.70
2022-08-10T14:18:56.154Z,100364.30
2022-08-10T14:21:23.820Z,100362.38
2022-08-10T14:23:53.627Z,100365.42
2022-08-10T14:26:29.079Z,100366.36
2022-08-10T14:29:18.950Z,100365.20
2022-08-10T14:32:01.670Z,100365.05
2022-08-10T14:34:59.416Z,100366.77
2022-08-10T14:37:40.512Z,100367.04
2022-08-10T14:40:16.139Z,100365.66
2022-08-10T14:42:45.596Z,100370.02
2022-08-10T14:45:19.878Z,100373.41
2022-08-10T14:48:03.358Z,100369.73
2022-08-10T14:50:33.553Z,100368.84
2022-08-10T14:53:10.050Z,100371.36
2022-08-10T14:55:58.390Z,100374.09
2022-08-10T14:58:29.336Z,100377.34
2022-08-10T15:00:56.816Z,100376.70
2022-08-10T15:03:59.379Z,100375.80
2022-08-10T15:06:17.232Z,100378.30
2022-08-10T15:08:46.951Z,100382.31
2022-08-10T15:12:13.008Z,100389.84
2022-08-10T15:14:41.177Z,100397.58
2022-08-10T15:16:55.908Z,100394.73
2022-08-10T15:20:01.492Z,100399.56
2022-08-10T15:22:36.255Z,100395.45
2022-08-10T15:25:05.183Z,100397.09
2022-08-10T15:27:54.921Z,100393.46
2022-08-10T15:30:31.665Z,100393.71
2022-08-10T15:34:02.032Z,100395.63
2022-08-10T15:36:30.058Z,100396.13
2022-08-10T15:39:00.204Z,100398.77
2022-08-10T15:41:58.434Z,100404.95
2022-08-10T15:44:35.655Z,100399.02
2022-08-10T15:47:03.133Z,100396.84
2022-08-10T15:49:45.322Z,100395.33
2022-08-10T15:52:39.048Z,100395.69
2022-08-10T15:55:42.432Z,100399.25
2022-08-10T15:58:40.402Z,100397.80
2022-08-10T16:02:14.717Z,100393.59
2022-08-10T16:04:32.187Z,100395.65
2022-08-10T16:07:06.064Z,100392.27
2022-08-10T16:10:23.092Z,100392.79
2022-08-10T16:12:59.601Z,100389.00
2022-08-10T16:15:27.777Z,100390.52
2022-08-10T16:17:56.477Z,100385.27
2022-08-10T16:20:54.712Z,100384.50
2022-08-10T16:23:29.065Z,100382.16
2022-08-10T16:26:13.519Z,100382.11
2022-08-10T16:28:45.141Z,100387.95
2022-08-10T16:31:21.140Z,100385.59
2022-08-10T16:33:56.177Z,100389.07
2022-08-10T16:36:31.322Z,100391.84
2022-08-10T16:38:59.092Z,100391.04
2022-08-10T16:42:02.687Z,100388.67
2022-08-10T16:44:19.406Z,100395.09
2022-08-10T16:46:46.659Z,100397.52
2022-08-10T16:49:14.117Z,100399.38
2022-08-10T16:51:41.270Z,100398.69
2022-08-10T16:54:08.430Z,100395.41
2022-08-10T16:56:48.911Z,100390.92
2022-08-10T16:59:24.749Z,100397.43
2022-08-10T17:01:53.807Z,100400.16
2022-08-10T17:04:22.829Z,100402.91
2022-08-10T17:07:00.132Z,100403.02
2022-08-10T17:09:34.667Z,100400.13
2022-08-10T17:12:10.667Z,100399.94
2022-08-10T17:14:38.917Z,100403.83
2022-08-10T17:17:07.213Z,100406.10
2022-08-10T17:19:43.102Z,100412.97
2022-08-10T17:22:15.520Z,100412.55
2022-08-10T17:24:50.664Z,100417.76
2022-08-10T17:28:04.318Z,100420.69
2022-08-10T17:30:15.985Z,100426.08
2022-08-10T17:33:09.788Z,100430.49
2022-08-10T17:35:38.086Z,100442.96
2022-08-10T17:38:12.244Z,100452.80
2022-08-10T17:41:05.403Z,100455.88
2022-08-10T17:44:01.097Z,100462.03
2022-08-10T17:46:19.602Z,100463.55
2022-08-10T17:48:47.585Z,100470.89
2022-08-10T17:51:15.766Z,100468.49
2022-08-10T17:53:44.238Z,100466.60
2022-08-10T17:56:11.811Z,100460.23
2022-08-10T17:58:51.037Z,100452.61
2022-08-10T18:01:41.680Z,100450.27
2022-08-10T18:04:12.776Z,100451.68
2022-08-10T18:06:41.360Z,100451.96
2022-08-10T18:09:18.783Z,100451.21
2022-08-10T18:11:48.116Z,100448.83
2022-08-10T18:14:15.813Z,100455.46
2022-08-10T18:16:43.946Z,100456.98
2022-08-10T18:19:12.876Z,100461.02
2022-08-10T18:21:41.494Z,100461.38
2022-08-10T18:24:19.295Z,100464.40
2022-08-10T18:26:51.641Z,100464.07
2022-08-10T18:29:22.477Z,100464.64
2022-08-10T18:31:49.868Z,100467.50
2022-08-10T18:34:21.188Z,100462.96
2022-08-10T18:36:49.504Z,100462.14
2022-08-10T18:39:22.698Z,100458.85
2022-08-10T18:42:00.171Z,100454.85
2022-08-10T18:44:35.202Z,100461.36
2022-08-10T18:47:16.827Z,100461.19
2022-08-10T18:49:44.251Z,100456.20
2022-08-10T18:52:12.566Z,100450.44
2022-08-10T18:54:47.674Z,100447.67
2022-08-10T18:57:22.627Z,100443.54
2022-08-10T19:00:10.811Z,100444.63
2022-08-10T19:03:18.896Z,100436.32
2022-08-10T19:06:24.115Z,100421.46
2022-08-10T19:09:09.642Z,100416.61
2022-08-10T19:12:30.076Z,100423.59
2022-08-10T19:15:36.094Z,100422.23
2022-08-10T19:18:14.409Z,100420.33
2022-08-10T19:20:52.218Z,100424.02
2022-08-10T19:23:38.080Z,100429.86
2022-08-10T19:26:43.749Z,100432.67
2022-08-10T19:30:12.226Z,100441.02
2022-08-10T19:32:38.241Z,100447.30
2022-08-10T19:35:16.570Z,100462.63
2022-08-10T19:38:00.386Z,100469.13
2022-08-10T19:40:53.233Z,100470.88
2022-08-10T19:44:00.648Z,100463.69
2022-08-10T19:46:31.488Z,100456.11
2022-08-10T19:49:39.854Z,100453.34
2022-08-10T19:52:12.282Z,100460.86
2022-08-10T19:55:02.469Z,100464.70
2022-08-10T19:57:40.578Z,100480.59
2022-08-10T20:00:19.309Z,100483.67
2022-08-10T20:03:17.290Z,100483.10
2022-08-10T20:06:18.099Z,100482.55
2022-08-10T20:08:59.640Z,100481.83
2022-08-10T20:11:44.499Z,100480.48
2022-08-10T20:14:36.969Z,100488.61
2022-08-10T20:17:05.973Z,100495.58
2022-08-10T20:19:53.006Z,100497.10
2022-08-10T20:22:29.614Z,100489.23
2022-08-10T20:25:02.950Z,100478.96
2022-08-10T20:27:59.468Z,100471.40
2022-08-10T20:30:33.711Z,100472.20
2022-08-10T20:33:11.780Z,100471.02
2022-08-10T20:35:48.761Z,100463.92
2022-08-10T20:38:39.372Z,100460.11
2022-08-10T20:41:15.814Z,100457.54
2022-08-10T20:43:55.580Z,100459.66
2022-08-10T20:46:30.823Z,100461.98
2022-08-10T20:49:32.076Z,100466.54
2022-08-10T20:52:03.021Z,100471.57
2022-08-10T20:54:45.017Z,100469.09
2022-08-10T20:57:55.847Z,100463.63
2022-08-10T21:00:23.035Z,100458.92
2022-08-10T21:02:50.516Z,100460.19
2022-08-10T21:05:36.095Z,100458.38
2022-08-10T21:08:41.956Z,100455.33
2022-08-10T21:11:16.312Z,100452.58
2022-08-10T21:14:21.326Z,100445.41
2022-08-10T21:17:10.386Z,100441.00
2022-08-10T21:19:53.705Z,100436.13
2022-08-10T21:22:29.534Z,100440.68
2022-08-10T21:25:01.212Z,100437.13
2022-08-10T21:27:59.626Z,100425.48
2022-08-10T21:30:53.223Z,100413.73
2022-08-10T21:33:49.124Z,100414.89
2022-08-10T21:36:23.347Z,100417.48
2022-08-10T21:39:09.916Z,100413.17
2022-08-10T21:41:59.131Z,100404.53
2022-08-10T21:45:10.930Z,100394.13
2022-08-10T21:48:06.685Z,100377.34
2022-08-10T21:51:05.956Z,100368.14
2022-08-10T21:53:57.600Z,100366.11
2022-08-10T21:56:46.977Z,100363.75
2022-08-10T21:59:44.952Z,100352.80
2022-08-10T22:02:34.936Z,100352.94
2022-08-10T22:05:21.033Z,100361.57
2022-08-10T22:08:12.083Z,100365.00
2022-08-10T22:11:04.334Z,100351.70
2022-08-10T22:13:51.818Z,100350.58
2022-08-10T22:16:44.570Z,100365.17
2022-08-10T22:19:30.056Z,100385.86
2022-08-10T22:22:31.208Z,100404.89
2022-08-10T22:25:52.013Z,100404.59
2022-08-10T22:28:38.013Z,100416.05
2022-08-10T22:31:48.174Z,100416.73
2022-08-10T22:34:41.879Z,100409.05
2022-08-10T22:37:51.501Z,100399.42
2022-08-10T22:40:41.767Z,100392.96
2022-08-10T22:43:47.042Z,100392.22
2022-08-10T22:46:44.814Z,100397.61
2022-08-10T22:49:11.767Z,100411.39
2022-08-10T22:52:03.398Z,100409.98
2022-08-10T22:54:57.018Z,100398.13
2022-08-10T22:57:42.664Z,100393.45
2022-08-10T23:00:15.185Z,100398.45
2022-08-10T23:02:50.355Z,100410.10
2022-08-10T23:05:17.640Z,100409.02
2022-08-10T23:07:47.655Z,100388.56
2022-08-10T23:10:15.398Z,100371.22
2022-08-10T23:12:58.348Z,100360.04
2022-08-10T23:15:46.806Z,100377.95
2022-08-10T23:18:34.947Z,100394.85
2022-08-10T23:21:02.114Z,100397.88
2022-08-10T23:23:29.973Z,100395.71
2022-08-10T23:25:58.491Z,100387.84
2022-08-10T23:28:39.168Z,100374.59
2022-08-10T23:31:13.457Z,100366.80
2022-08-10T23:33:40.709Z,100360.04
2022-08-10T23:36:32.214Z,100354.70
2022-08-10T23:39:25.479Z,100355.37
2022-08-10T23:41:42.201Z,100354.61
2022-08-10T23:44:13.658Z,100359.12
2022-08-10T23:46:47.975Z,100367.13
2022-08-10T23:49:15.843Z,100375.81
2022-08-10T23:51:54.966Z,100380.03
2022-08-10T23:54:24.084Z,100382.73
2022-08-10T23:56:52.664Z,100382.98
2022-08-10T23:59:23.390Z,100394.88
